X  Fermer Données météorologiques d'aviation de Metar     LFQQ Lille-Lesquin
Température
14°C Température
8°C Point de rosée
67% Humidité



Vitesse
3 KM/H
2 MPH
1 M/S
2 KTS



70°
ENE
Conditions actuelles

Claire Claire
Pression 1022.92 (hPa) - 30.21 (inHg)
Visibilité 4.4 (mile) - 7 (km)
Aéroport
Code de l'aéroport LFQQ

Emplacement: Lille-Lesquin
Distance: 14 (km)

Metar:
LFQQ 090000Z AUTO 07002KT 7000 NSC 14/08 Q1023 NOSIG

Temps: 09-04-2020 01:00 BST